createdAt,value
2019-03-22T00:02:10.863Z,35.95
2019-03-22T00:04:42.354Z,36.65
2019-03-22T00:07:13.696Z,37.05
2019-03-22T00:09:45.024Z,36.40
2019-03-22T00:12:16.415Z,34.92
2019-03-22T00:14:47.738Z,37.00
2019-03-22T00:17:19.073Z,37.48
2019-03-22T00:19:50.480Z,37.53
2019-03-22T00:22:21.734Z,35.38
2019-03-22T00:24:53.039Z,36.68
2019-03-22T00:27:24.328Z,35.13
2019-03-22T00:29:55.669Z,34.78
2019-03-22T00:32:27.020Z,35.10
2019-03-22T00:34:58.554Z,35.73
2019-03-22T00:37:29.835Z,35.30
2019-03-22T00:40:01.133Z,35.25
2019-03-22T00:42:32.486Z,34.10
2019-03-22T00:45:03.803Z,33.45
2019-03-22T00:47:35.131Z,33.45
2019-03-22T00:50:06.706Z,33.80
2019-03-22T00:52:38.017Z,31.93
2019-03-22T00:55:10.155Z,33.80
2019-03-22T00:57:41.471Z,33.45
2019-03-22T01:00:13.465Z,33.23
2019-03-22T01:02:44.826Z,33.00
2019-03-22T01:05:17.603Z,31.07
2019-03-22T01:07:49.449Z,31.42
2019-03-22T01:10:20.856Z,30.12
2019-03-22T01:12:52.178Z,30.10
2019-03-22T01:15:23.512Z,28.62
2019-03-22T01:17:54.905Z,31.15
2019-03-22T01:20:26.182Z,29.82
2019-03-22T01:23:00.037Z,29.77
2019-03-22T01:25:30.625Z,30.30
2019-03-22T01:28:01.886Z,28.38
2019-03-22T01:30:33.138Z,31.02
2019-03-22T01:33:04.559Z,30.60
2019-03-22T01:35:35.909Z,29.40
2019-03-22T01:38:07.287Z,31.12
2019-03-22T01:40:38.632Z,30.85
2019-03-22T01:43:10.111Z,31.20
2019-03-22T01:45:41.408Z,30.62
2019-03-22T01:48:12.753Z,32.33
2019-03-22T01:50:44.228Z,31.93
2019-03-22T01:53:15.640Z,31.73
2019-03-22T01:55:46.904Z,31.42
2019-03-22T01:58:18.216Z,30.75
2019-03-22T02:00:49.453Z,32.70
2019-03-22T02:03:20.856Z,32.83
2019-03-22T02:05:52.233Z,34.70
2019-03-22T02:08:23.982Z,34.20
2019-03-22T02:10:55.358Z,36.68
2019-03-22T02:13:26.758Z,35.80
2019-03-22T02:15:58.160Z,35.55
2019-03-22T02:18:29.407Z,35.38
2019-03-22T02:21:00.783Z,33.55
2019-03-22T02:23:32.077Z,33.78
2019-03-22T02:26:03.374Z,34.53
2019-03-22T02:28:34.662Z,33.33
2019-03-22T02:31:06.017Z,33.95
2019-03-22T02:33:37.344Z,34.13
2019-03-22T02:36:08.659Z,35.85
2019-03-22T02:38:40.008Z,35.10
2019-03-22T02:41:11.415Z,34.48
2019-03-22T02:43:42.763Z,34.23
2019-03-22T02:46:14.127Z,33.35
2019-03-22T02:48:45.429Z,35.58
2019-03-22T02:51:16.826Z,33.23
2019-03-22T02:53:48.122Z,34.80
2019-03-22T02:56:19.463Z,36.00
2019-03-22T02:58:50.746Z,35.88
2019-03-22T03:01:22.063Z,35.83
2019-03-22T04:24:49.036Z,36.63
2019-03-22T04:27:23.929Z,39.15
2019-03-22T04:29:56.842Z,35.83
2019-03-22T04:32:29.340Z,33.53
2019-03-22T04:35:00.778Z,35.25
2019-03-22T04:37:54.070Z,34.70
2019-03-22T04:40:28.864Z,36.73
2019-03-22T04:43:00.429Z,36.10
2019-03-22T04:45:34.815Z,36.37
2019-03-22T04:48:14.754Z,35.43
2019-03-22T04:50:49.812Z,35.80
2019-03-22T04:53:27.400Z,36.05
2019-03-22T04:56:04.783Z,35.03
2019-03-22T04:58:43.467Z,37.73
2019-03-22T05:01:18.879Z,35.28
2019-03-22T05:03:50.665Z,37.03
2019-03-22T05:06:23.538Z,34.53
2019-03-22T05:08:57.253Z,35.80
2019-03-22T05:11:30.050Z,35.52
2019-03-22T05:14:05.273Z,37.48
2019-03-22T05:16:41.902Z,36.30
2019-03-22T05:19:17.207Z,37.50
2019-03-22T05:21:51.464Z,36.23
2019-03-22T05:24:25.669Z,33.70
2019-03-22T05:26:59.827Z,36.95
2019-03-22T05:29:34.979Z,36.50
2019-03-22T05:32:14.725Z,35.78
2019-03-22T05:34:46.059Z,37.17
2019-03-22T05:37:17.345Z,37.65
2019-03-22T05:39:48.687Z,36.55
2019-03-22T05:42:20.004Z,36.15
2019-03-22T05:44:51.263Z,36.50
2019-03-22T05:47:22.633Z,38.03
2019-03-22T05:49:53.932Z,37.45
2019-03-22T05:52:25.232Z,37.78
2019-03-22T05:54:56.540Z,35.48
2019-03-22T05:57:27.909Z,37.95
2019-03-22T05:59:59.234Z,35.47
2019-03-22T06:02:30.578Z,37.15
2019-03-22T06:05:01.851Z,35.63
2019-03-22T06:07:33.134Z,37.93
2019-03-22T06:10:04.688Z,38.17
2019-03-22T06:12:35.998Z,39.23
2019-03-22T06:15:08.320Z,39.00
2019-03-22T06:17:50.907Z,37.88
2019-03-22T06:20:12.664Z,36.68
2019-03-22T06:22:43.921Z,35.98
2019-03-22T06:25:15.166Z,36.45
2019-03-22T06:27:46.418Z,37.77
2019-03-22T06:30:17.774Z,34.78
2019-03-22T06:32:49.103Z,39.78
2019-03-22T06:35:20.428Z,39.20
2019-03-22T06:37:51.766Z,39.13
2019-03-22T06:40:23.178Z,39.10
2019-03-22T06:42:54.489Z,40.40
2019-03-22T06:45:25.828Z,37.78
2019-03-22T06:47:56.988Z,37.83
2019-03-22T06:50:28.403Z,40.50
2019-03-22T06:52:59.771Z,40.00
2019-03-22T06:55:31.096Z,38.85
2019-03-22T06:58:02.383Z,39.40
2019-03-22T07:00:33.656Z,40.48
2019-03-22T07:03:05.026Z,39.78
2019-03-22T07:05:36.313Z,40.15
2019-03-22T07:08:07.653Z,39.08
2019-03-22T07:10:38.956Z,40.08
2019-03-22T07:13:10.365Z,39.10
2019-03-22T07:15:41.714Z,38.53
2019-03-22T07:18:13.047Z,37.63
2019-03-22T07:20:44.394Z,38.83
2019-03-22T07:23:15.722Z,39.38
2019-03-22T07:25:47.646Z,40.80
2019-03-22T07:28:18.977Z,40.33
2019-03-22T07:30:50.289Z,40.45
2019-03-22T07:33:21.647Z,39.33
2019-03-22T07:35:52.960Z,38.13
2019-03-22T07:38:27.163Z,39.63
2019-03-22T07:40:58.376Z,41.28
2019-03-22T07:43:29.848Z,43.13
2019-03-22T07:46:01.302Z,43.63
2019-03-22T07:48:32.632Z,45.60
2019-03-22T07:51:04.058Z,44.45
2019-03-22T07:53:35.369Z,44.70
2019-03-22T07:56:06.886Z,46.60
2019-03-22T07:58:38.183Z,44.30
2019-03-22T08:01:09.487Z,45.75
2019-03-22T08:03:40.797Z,46.20
2019-03-22T08:06:12.131Z,49.48
2019-03-22T08:08:43.432Z,48.17
2019-03-22T08:11:14.798Z,51.92
2019-03-22T08:13:46.035Z,50.48
2019-03-22T08:16:17.280Z,48.65
2019-03-22T08:18:48.637Z,46.65
2019-03-22T08:21:19.978Z,50.25
2019-03-22T08:23:51.322Z,47.65
2019-03-22T08:26:22.642Z,50.50
2019-03-22T08:28:53.874Z,47.48
2019-03-22T08:31:25.070Z,49.18
2019-03-22T08:33:56.406Z,43.33
2019-03-22T08:36:27.590Z,43.65
2019-03-22T08:38:58.763Z,40.43
2019-03-22T08:41:30.143Z,41.80
2019-03-22T08:44:02.852Z,41.02
2019-03-22T08:46:34.475Z,41.02
2019-03-22T08:49:09.077Z,42.20
2019-03-22T08:51:38.814Z,40.10
2019-03-22T08:54:10.034Z,41.70
2019-03-22T08:56:41.339Z,39.00
2019-03-22T08:59:13.543Z,39.43
2019-03-22T09:01:45.053Z,39.95
2019-03-22T09:04:16.327Z,39.23
2019-03-22T09:06:47.627Z,40.83
2019-03-22T09:09:18.742Z,39.18
2019-03-22T09:11:50.048Z,38.73
2019-03-22T09:14:21.279Z,41.40
2019-03-22T09:16:52.665Z,39.33
2019-03-22T09:19:23.908Z,40.03
2019-03-22T09:21:55.266Z,39.20
2019-03-22T09:24:38.518Z,39.85
2019-03-22T09:26:59.557Z,40.08
2019-03-22T09:29:30.743Z,41.70
2019-03-22T09:32:02.009Z,43.20
2019-03-22T09:34:34.247Z,40.08
2019-03-22T09:37:08.641Z,40.63
2019-03-22T09:39:39.073Z,42.13
2019-03-22T09:42:10.390Z,41.73
2019-03-22T09:44:43.839Z,40.58
2019-03-22T09:47:16.504Z,39.63
2019-03-22T09:49:47.589Z,40.90
2019-03-22T09:52:18.914Z,40.50
2019-03-22T09:54:50.623Z,40.80
2019-03-22T09:57:21.938Z,39.88
2019-03-22T09:59:53.248Z,39.73
2019-03-22T10:02:24.556Z,39.90
2019-03-22T10:04:55.798Z,39.85
2019-03-22T10:07:27.179Z,39.00
2019-03-22T10:09:58.361Z,39.03
2019-03-22T10:12:29.705Z,36.65
2019-03-22T10:15:01.039Z,38.08
2019-03-22T10:17:32.325Z,38.00
2019-03-22T10:20:03.508Z,36.45
2019-03-22T10:22:34.924Z,36.60
2019-03-22T10:25:06.721Z,37.88
2019-03-22T10:27:38.067Z,36.60
2019-03-22T10:30:09.977Z,36.57
2019-03-22T10:32:41.255Z,36.48
2019-03-22T10:35:25.436Z,35.85
2019-03-22T10:37:45.930Z,36.03
2019-03-22T10:40:17.425Z,33.23
2019-03-22T10:42:48.849Z,35.03
2019-03-22T10:45:20.271Z,35.38
2019-03-22T10:47:51.579Z,34.83
2019-03-22T10:50:22.907Z,35.60
2019-03-22T10:52:54.230Z,35.43
2019-03-22T10:55:30.308Z,35.28
2019-03-22T10:57:58.243Z,34.63
2019-03-22T11:00:29.657Z,36.47
2019-03-22T11:03:00.976Z,36.60
2019-03-22T11:05:32.312Z,36.98
2019-03-22T11:08:03.556Z,38.17
2019-03-22T11:10:34.839Z,36.88
2019-03-22T11:13:06.446Z,37.45
2019-03-22T11:15:47.919Z,40.30
2019-03-22T11:18:10.886Z,40.40
2019-03-22T11:20:42.278Z,39.87
2019-03-22T11:23:13.459Z,40.10
2019-03-22T11:25:44.804Z,39.48
2019-03-22T11:28:16.195Z,41.02
2019-03-22T11:30:47.529Z,42.15
2019-03-22T11:33:18.830Z,42.53
2019-03-22T11:35:50.204Z,45.98
2019-03-22T11:38:23.002Z,42.67
2019-03-22T11:40:54.346Z,40.88
2019-03-22T11:43:25.738Z,41.55
2019-03-22T11:45:56.928Z,43.80
2019-03-22T11:48:28.231Z,43.10
2019-03-22T11:50:59.477Z,42.58
2019-03-22T11:53:30.695Z,43.75
2019-03-22T11:56:02.052Z,45.90
2019-03-22T11:58:33.366Z,42.93
2019-03-22T12:01:04.634Z,42.43
2019-03-22T12:03:35.977Z,42.70
2019-03-22T12:06:07.485Z,41.68
2019-03-22T12:08:38.764Z,41.33
2019-03-22T12:11:10.011Z,41.28
2019-03-22T12:13:41.374Z,40.78
2019-03-22T12:16:12.701Z,44.63
2019-03-22T12:18:44.004Z,42.62
2019-03-22T12:21:15.385Z,41.73
2019-03-22T12:23:46.770Z,39.58
2019-03-22T12:26:18.073Z,40.17
2019-03-22T12:28:49.417Z,40.27
2019-03-22T12:31:20.764Z,37.70
2019-03-22T12:33:52.006Z,37.13
2019-03-22T12:36:23.267Z,37.95
2019-03-22T12:38:54.566Z,35.98
2019-03-22T12:41:25.805Z,33.92
2019-03-22T12:43:57.304Z,33.42
2019-03-22T12:46:28.585Z,33.98
2019-03-22T12:48:59.887Z,31.15
2019-03-22T12:51:31.225Z,32.58
2019-03-22T12:54:02.599Z,31.25
2019-03-22T12:56:33.808Z,33.70
2019-03-22T12:59:05.112Z,33.35
2019-03-22T13:01:36.403Z,33.70
2019-03-22T13:04:07.961Z,36.50
2019-03-22T13:06:39.330Z,37.28
2019-03-22T13:09:11.380Z,33.05
2019-03-22T13:11:42.679Z,35.90
2019-03-22T13:14:13.971Z,35.80
2019-03-22T13:16:45.256Z,32.58
2019-03-22T13:19:16.597Z,33.73
2019-03-22T13:21:47.963Z,32.90
2019-03-22T13:24:19.334Z,32.48
2019-03-22T13:26:50.689Z,32.20
2019-03-22T13:29:22.024Z,33.88
2019-03-22T13:31:53.328Z,34.90
2019-03-22T13:34:24.677Z,30.90
2019-03-22T13:36:55.947Z,32.53
2019-03-22T13:39:27.189Z,30.30
2019-03-22T13:41:58.483Z,35.35
2019-03-22T13:44:29.899Z,31.23
2019-03-22T13:47:01.222Z,32.73
2019-03-22T13:49:32.698Z,33.20
2019-03-22T13:52:04.220Z,33.65
2019-03-22T13:54:35.699Z,33.18
2019-03-22T13:57:07.036Z,35.50
2019-03-22T13:59:38.433Z,34.40
2019-03-22T14:02:09.741Z,33.13
2019-03-22T14:04:40.998Z,33.33
2019-03-22T14:07:12.285Z,34.35
2019-03-22T14:09:43.408Z,32.08
2019-03-22T14:12:14.642Z,33.70
2019-03-22T14:14:46.226Z,30.85
2019-03-22T14:17:17.566Z,33.35
2019-03-22T14:19:48.810Z,33.30
2019-03-22T14:22:20.080Z,37.83
2019-03-22T14:25:10.655Z,32.95
2019-03-22T14:28:02.822Z,33.57
2019-03-22T14:30:34.165Z,32.45
2019-03-22T14:33:12.818Z,35.25
2019-03-22T14:35:38.524Z,33.23
2019-03-22T14:38:09.851Z,32.65
2019-03-22T14:40:41.170Z,34.90
2019-03-22T14:43:12.413Z,31.75
2019-03-22T14:45:43.697Z,34.27
2019-03-22T14:48:14.950Z,35.28
2019-03-22T14:50:46.282Z,32.03
2019-03-22T14:53:17.580Z,33.30
2019-03-22T14:55:48.810Z,35.60
2019-03-22T14:58:20.149Z,36.38
2019-03-22T15:00:51.459Z,34.95
2019-03-22T15:03:28.585Z,34.33
2019-03-22T15:05:59.846Z,33.08
2019-03-22T15:08:31.133Z,37.50
2019-03-22T15:11:02.531Z,35.83
2019-03-22T15:13:44.650Z,36.40
2019-03-22T15:16:47.615Z,36.88
2019-03-22T15:19:50.083Z,35.55
2019-03-22T15:22:43.520Z,36.13
2019-03-22T15:25:40.123Z,35.43
2019-03-22T15:28:34.072Z,33.45
2019-03-22T15:31:39.435Z,35.52
2019-03-22T15:34:28.255Z,35.33
2019-03-22T15:37:27.175Z,37.65
2019-03-22T15:40:05.250Z,35.23
2019-03-22T15:42:36.617Z,36.60
2019-03-22T15:45:11.930Z,34.38
2019-03-22T15:47:43.358Z,33.50
2019-03-22T15:50:16.744Z,36.93
2019-03-22T15:52:48.111Z,35.70
2019-03-22T15:55:19.576Z,34.53
2019-03-22T15:57:50.893Z,35.88
2019-03-22T16:00:22.348Z,36.90
2019-03-22T16:02:53.649Z,36.38
2019-03-22T16:05:24.970Z,35.60
2019-03-22T16:07:56.301Z,38.90
2019-03-22T16:10:27.646Z,37.28
2019-03-22T16:12:58.983Z,38.65
2019-03-22T16:15:30.319Z,38.75
2019-03-22T16:18:01.711Z,37.35
2019-03-22T16:20:32.969Z,40.78
2019-03-22T16:23:04.382Z,38.70
2019-03-22T16:25:54.524Z,39.65
2019-03-22T16:28:25.798Z,40.20
2019-03-22T16:30:57.060Z,40.55
2019-03-22T16:33:28.320Z,41.10
2019-03-22T16:35:59.665Z,41.15
2019-03-22T16:38:30.950Z,39.78
2019-03-22T16:41:02.335Z,39.98
2019-03-22T16:43:33.595Z,40.77
2019-03-22T16:46:04.961Z,42.53
2019-03-22T16:48:36.370Z,41.80
2019-03-22T16:51:07.812Z,40.00
2019-03-22T16:53:39.142Z,42.75
2019-03-22T16:56:10.431Z,39.70
2019-03-22T16:58:41.831Z,42.70
2019-03-22T17:01:13.356Z,40.33
2019-03-22T17:03:44.730Z,41.98
2019-03-22T17:06:16.073Z,42.90
2019-03-22T17:08:47.303Z,44.37
2019-03-22T17:11:18.656Z,44.83
2019-03-22T17:13:50.072Z,42.73
2019-03-22T17:16:21.429Z,43.90
2019-03-22T17:18:52.587Z,42.33
2019-03-22T17:21:23.837Z,45.23
2019-03-22T17:23:55.160Z,40.55
2019-03-22T17:26:26.442Z,41.92
2019-03-22T17:28:57.793Z,43.25
2019-03-22T17:31:29.123Z,43.48
2019-03-22T17:34:00.484Z,43.75
2019-03-22T17:36:31.836Z,42.88
2019-03-22T17:39:03.278Z,41.10
2019-03-22T17:41:34.692Z,43.90
2019-03-22T17:44:06.051Z,43.48
2019-03-22T17:46:37.436Z,45.23
2019-03-22T17:49:08.748Z,43.65
2019-03-22T17:51:40.135Z,44.77
2019-03-22T17:54:11.450Z,45.48
2019-03-22T17:56:42.760Z,47.00
2019-03-22T17:59:14.126Z,46.60
2019-03-22T18:01:45.584Z,46.15
2019-03-22T18:04:23.842Z,44.75
2019-03-22T18:06:49.970Z,46.60
2019-03-22T18:09:22.532Z,46.88
2019-03-22T18:11:53.825Z,44.53
2019-03-22T18:14:26.941Z,45.88
2019-03-22T18:16:57.993Z,45.45
2019-03-22T18:19:29.283Z,45.23
2019-03-22T18:22:00.444Z,45.92
2019-03-22T18:24:31.667Z,44.35
2019-03-22T18:27:03.119Z,47.27
2019-03-22T18:29:34.386Z,48.98
2019-03-22T18:32:05.723Z,43.70
2019-03-22T18:34:37.622Z,46.18
2019-03-22T18:37:08.943Z,45.78
2019-03-22T18:39:40.302Z,46.02
2019-03-22T18:42:11.596Z,49.15
2019-03-22T18:44:42.906Z,47.88
2019-03-22T18:47:14.126Z,47.48
2019-03-22T18:49:45.653Z,46.30
2019-03-22T18:52:17.032Z,47.55
2019-03-22T18:54:48.736Z,49.90
2019-03-22T18:57:19.955Z,49.88
2019-03-22T18:59:51.186Z,49.23
2019-03-22T19:02:22.531Z,49.60
2019-03-22T19:04:53.855Z,50.23
2019-03-22T19:07:25.293Z,50.90
2019-03-22T19:09:56.711Z,51.33
2019-03-22T19:12:28.349Z,53.17
2019-03-22T19:14:59.666Z,51.55
2019-03-22T19:17:30.947Z,52.10
2019-03-22T19:20:02.229Z,52.20
2019-03-22T19:22:33.536Z,51.23
2019-03-22T19:25:05.193Z,53.45
2019-03-22T19:27:36.475Z,51.98
2019-03-22T19:30:08.881Z,54.67
2019-03-22T19:32:40.346Z,53.00
2019-03-22T19:35:13.212Z,51.50
2019-03-22T19:37:44.585Z,55.83
2019-03-22T19:40:17.515Z,53.33
2019-03-22T19:42:48.833Z,51.85
2019-03-22T19:45:20.301Z,54.75
2019-03-22T19:47:51.556Z,53.20
2019-03-22T19:50:22.919Z,52.70
2019-03-22T19:52:54.208Z,53.23
2019-03-22T19:55:25.508Z,52.90
2019-03-22T19:57:57.354Z,53.85
2019-03-22T20:00:28.703Z,51.80
2019-03-22T20:02:59.992Z,53.35
2019-03-22T20:05:33.204Z,53.38
2019-03-22T20:08:05.095Z,55.10
2019-03-22T20:10:38.921Z,57.60
2019-03-22T20:13:10.352Z,55.95
2019-03-22T20:15:41.788Z,54.85
2019-03-22T20:18:13.150Z,56.60
2019-03-22T20:20:44.579Z,57.88
2019-03-22T20:23:15.960Z,57.13
2019-03-22T20:25:47.208Z,59.83
2019-03-22T20:28:18.509Z,57.65
2019-03-22T20:30:49.882Z,57.85
2019-03-22T20:33:21.192Z,58.85
2019-03-22T20:35:52.466Z,52.80
2019-03-22T20:38:24.988Z,53.35
2019-03-22T20:40:56.433Z,57.70
2019-03-22T20:43:27.734Z,56.98
2019-03-22T20:45:59.046Z,57.25
2019-03-22T20:48:30.351Z,56.37
2019-03-22T20:51:01.752Z,55.98
2019-03-22T20:53:33.105Z,56.68
2019-03-22T20:56:04.667Z,56.80
2019-03-22T20:58:36.055Z,56.65
2019-03-22T21:01:07.458Z,57.15
2019-03-22T21:03:38.759Z,56.80
2019-03-22T21:06:10.546Z,55.88
2019-03-22T21:08:42.350Z,55.78
2019-03-22T21:11:16.926Z,59.15
2019-03-22T21:13:48.287Z,57.85
2019-03-22T21:16:19.661Z,58.65
2019-03-22T21:18:51.070Z,58.30
2019-03-22T21:21:25.392Z,57.58
2019-03-22T21:23:55.735Z,56.95
2019-03-22T21:26:27.461Z,55.65
2019-03-22T21:28:58.945Z,57.98
2019-03-22T21:31:30.256Z,59.18
2019-03-22T21:34:01.671Z,59.08
2019-03-22T21:36:33.072Z,58.07
2019-03-22T21:39:06.445Z,58.40
2019-03-22T21:41:38.205Z,56.48
2019-03-22T21:44:10.002Z,57.83
2019-03-22T21:46:42.682Z,57.30
2019-03-22T21:49:14.272Z,57.48
2019-03-22T21:51:45.743Z,60.70
2019-03-22T21:54:17.149Z,58.90
2019-03-22T21:56:48.524Z,59.30
2019-03-22T21:59:19.901Z,61.58
2019-03-22T22:01:51.221Z,60.08
2019-03-22T22:04:22.500Z,59.58
2019-03-22T22:06:54.037Z,60.63
2019-03-22T22:09:25.393Z,58.55
2019-03-22T22:11:56.751Z,57.33
2019-03-22T22:14:28.041Z,58.20
2019-03-22T22:16:59.472Z,58.35
2019-03-22T22:19:31.180Z,59.67
2019-03-22T22:22:02.424Z,61.28
2019-03-22T22:24:33.750Z,60.28
2019-03-22T22:27:13.496Z,59.95
2019-03-22T22:29:38.161Z,61.08
2019-03-22T22:32:09.530Z,61.47
2019-03-22T22:34:40.725Z,60.43
2019-03-22T22:37:12.099Z,60.30
2019-03-22T22:39:43.458Z,59.67
2019-03-22T22:42:14.815Z,62.23
2019-03-22T22:44:46.010Z,61.50
2019-03-22T22:47:17.429Z,62.73
2019-03-22T22:49:49.063Z,61.40
2019-03-22T22:52:20.424Z,58.40
2019-03-22T22:54:51.759Z,60.12
2019-03-22T22:57:23.108Z,59.98
2019-03-22T22:59:54.472Z,61.30
2019-03-22T23:02:25.807Z,60.17
2019-03-22T23:04:57.151Z,58.17
2019-03-22T23:07:28.443Z,64.12
2019-03-22T23:09:59.787Z,60.80
2019-03-22T23:12:31.087Z,60.38
2019-03-22T23:15:02.449Z,61.80
2019-03-22T23:17:35.865Z,61.02
2019-03-22T23:20:07.673Z,60.33
2019-03-22T23:22:39.057Z,62.27
2019-03-22T23:25:11.080Z,60.05
2019-03-22T23:27:42.385Z,61.63
2019-03-22T23:30:14.636Z,58.17
2019-03-22T23:32:46.010Z,60.63
2019-03-22T23:35:17.322Z,60.40
2019-03-22T23:37:48.644Z,57.43
2019-03-22T23:40:19.991Z,59.40
2019-03-22T23:42:51.335Z,59.85
2019-03-22T23:45:22.641Z,58.55
2019-03-22T23:47:53.974Z,62.10
2019-03-22T23:50:25.144Z,61.28
2019-03-22T23:52:56.477Z,61.45
2019-03-22T23:55:27.823Z,58.20
2019-03-22T23:57:59.225Z,57.38
